Time;durP1;ratioP1;P1;durP2;ratioP2;P2;SDS_P1;SDS_P2;PMS_P1;PMS_P2;Temp;Humidity;BMP_temperature;BMP_pressure;BME280_temperature;BME280_humidity;BME280_pressure;Samples;Min_cycle;Max_cycle;Signal;HPM_P1;HPM_P2
2024/03/13 00:02:23;;;;;;;20.60;15.77;;;;;;;;;;5072487;28;20182;-55
2024/03/13 00:04:49;;;;;;;22.25;16.27;;;;;;;;;;5073600;28;20206;-55
2024/03/13 00:07:15;;;;;;;20.23;14.27;;;;;;;;;;5076942;28;20508;-55
2024/03/13 00:09:50;;;;;;;23.15;15.57;;;;;;;;;;5080083;28;20186;-55
2024/03/13 00:12:16;;;;;;;20.70;14.82;;;;;;;;;;5074504;28;20174;-55
2024/03/13 00:14:46;;;;;;;20.20;14.63;;;;;;;;;;5071766;28;20206;-55
2024/03/13 00:17:12;;;;;;;21.00;15.13;;;;;;;;;;5074927;28;20183;-55
2024/03/13 00:19:38;;;;;;;18.85;14.02;;;;;;;;;;5072095;28;20475;-55
2024/03/13 00:22:04;;;;;;;20.00;14.30;;;;;;;;;;5075012;28;20179;-55
2024/03/13 00:24:30;;;;;;;18.25;13.73;;;;;;;;;;5068596;28;20174;-55
2024/03/13 00:26:57;;;;;;;20.55;14.20;;;;;;;;;;5090050;28;20298;-55
2024/03/13 00:29:25;;;;;;;17.75;13.23;;;;;;;;;;5067897;28;20171;-55
2024/03/13 00:31:51;;;;;;;19.98;13.75;;;;;;;;;;5074032;28;20430;-55
2024/03/13 00:34:18;;;;;;;17.50;12.55;;;;;;;;;;5075520;28;20175;-55
2024/03/13 00:36:44;;;;;;;18.05;13.52;;;;;;;;;;5069075;28;20442;-55
2024/03/13 00:39:10;;;;;;;16.63;12.57;;;;;;;;;;5074231;28;20235;-55
2024/03/13 00:41:38;;;;;;;17.60;12.65;;;;;;;;;;5077254;28;20182;-55
2024/03/13 00:44:05;;;;;;;18.65;12.82;;;;;;;;;;5068346;28;20292;-55
2024/03/13 00:46:31;;;;;;;16.30;12.05;;;;;;;;;;5071532;28;20232;-55
2024/03/13 00:48:57;;;;;;;19.45;12.68;;;;;;;;;;5073881;28;20208;-55
2024/03/13 00:51:23;;;;;;;15.88;11.38;;;;;;;;;;5075531;28;20178;-55
2024/03/13 00:53:49;;;;;;;15.82;11.75;;;;;;;;;;5073779;28;20182;-55
2024/03/13 00:56:15;;;;;;;16.50;12.48;;;;;;;;;;5077315;28;20211;-55
2024/03/13 00:58:42;;;;;;;17.73;12.65;;;;;;;;;;5082865;28;20210;-55
2024/03/13 01:01:11;;;;;;;15.85;11.80;;;;;;;;;;5079735;28;20728;-55
2024/03/13 01:03:37;;;;;;;14.90;11.85;;;;;;;;;;5075877;28;20215;-55
2024/03/13 01:06:05;;;;;;;14.63;11.32;;;;;;;;;;5074292;28;20182;-55
2024/03/13 01:08:33;;;;;;;14.20;10.35;;;;;;;;;;5073348;28;20581;-54
2024/03/13 01:11:00;;;;;;;14.15;10.77;;;;;;;;;;5074972;28;20579;-55
2024/03/13 01:13:27;;;;;;;14.63;11.07;;;;;;;;;;5079791;28;20206;-55
2024/03/13 01:15:52;;;;;;;16.00;10.98;;;;;;;;;;5075456;28;20242;-55
2024/03/13 01:18:19;;;;;;;13.30;9.95;;;;;;;;;;5083004;28;20274;-55
2024/03/13 01:20:45;;;;;;;14.25;10.30;;;;;;;;;;5072486;28;20202;-55
2024/03/13 01:23:11;;;;;;;13.00;10.10;;;;;;;;;;5077168;28;20179;-55
2024/03/13 01:25:38;;;;;;;13.75;9.73;;;;;;;;;;5073102;28;20189;-55
2024/03/13 01:28:04;;;;;;;13.30;9.30;;;;;;;;;;5082712;28;20258;-55
2024/03/13 01:30:30;;;;;;;13.20;10.35;;;;;;;;;;5077554;28;20192;-55
2024/03/13 01:32:56;;;;;;;13.77;10.20;;;;;;;;;;5080282;28;20191;-55
2024/03/13 01:35:22;;;;;;;13.60;9.60;;;;;;;;;;5076455;28;20179;-55
2024/03/13 01:38:01;;;;;;;12.20;9.57;;;;;;;;;;5074428;28;20212;-55
2024/03/13 01:57:31;;;;;;;11.75;8.88;;;;;;;;;;5074273;28;20236;-55
2024/03/13 02:02:45;;;;;;;10.23;8.13;;;;;;;;;;5077703;28;20200;-55
2024/03/13 02:05:14;;;;;;;12.13;8.38;;;;;;;;;;5077857;28;20178;-55
2024/03/13 02:07:40;;;;;;;10.38;8.05;;;;;;;;;;5074149;28;20269;-55
2024/03/13 02:10:06;;;;;;;10.75;8.10;;;;;;;;;;5071628;28;20637;-55
2024/03/13 02:12:32;;;;;;;11.02;8.00;;;;;;;;;;5071799;28;20500;-55
2024/03/13 02:14:58;;;;;;;11.23;8.20;;;;;;;;;;5075492;28;20185;-55
2024/03/13 02:17:24;;;;;;;8.90;6.88;;;;;;;;;;5068525;28;20186;-55
2024/03/13 02:19:54;;;;;;;9.52;7.07;;;;;;;;;;5075298;28;20609;-55
2024/03/13 02:22:20;;;;;;;9.98;7.43;;;;;;;;;;5074177;28;20197;-55
2024/03/13 02:24:46;;;;;;;10.00;7.63;;;;;;;;;;5073615;28;20727;-55
2024/03/13 02:27:12;;;;;;;11.30;7.82;;;;;;;;;;5080214;28;20189;-55
2024/03/13 02:29:41;;;;;;;10.25;7.43;;;;;;;;;;5074298;28;20186;-55
2024/03/13 02:32:07;;;;;;;9.35;7.22;;;;;;;;;;5067488;28;20607;-55
2024/03/13 02:34:34;;;;;;;9.88;7.45;;;;;;;;;;5074321;28;20177;-55
2024/03/13 02:37:00;;;;;;;7.95;6.70;;;;;;;;;;5076254;28;20273;-55
2024/03/13 02:39:27;;;;;;;9.95;6.88;;;;;;;;;;5075288;28;20214;-55
2024/03/13 02:41:53;;;;;;;10.18;7.10;;;;;;;;;;5073369;28;20178;-55
2024/03/13 02:44:19;;;;;;;8.32;6.38;;;;;;;;;;5074997;28;20228;-55
2024/03/13 02:46:45;;;;;;;8.93;6.68;;;;;;;;;;5074467;28;20461;-55
2024/03/13 02:49:11;;;;;;;9.15;6.93;;;;;;;;;;5073863;28;20586;-55
2024/03/13 02:51:37;;;;;;;7.18;6.22;;;;;;;;;;5077201;28;20174;-55
2024/03/13 02:54:04;;;;;;;7.57;6.70;;;;;;;;;;5070753;28;20547;-55
2024/03/13 02:56:30;;;;;;;9.23;7.05;;;;;;;;;;5083183;28;20181;-55
2024/03/13 02:58:56;;;;;;;8.32;6.45;;;;;;;;;;5077723;28;20188;-55
2024/03/13 03:01:23;;;;;;;8.40;6.50;;;;;;;;;;5070161;28;20297;-55
2024/03/13 03:03:49;;;;;;;9.18;6.97;;;;;;;;;;5072754;28;20174;-55
2024/03/13 03:06:15;;;;;;;8.25;6.10;;;;;;;;;;5077232;28;20179;-55
2024/03/13 03:08:43;;;;;;;8.75;6.38;;;;;;;;;;5069492;28;20180;-55
2024/03/13 03:11:10;;;;;;;7.38;6.13;;;;;;;;;;5073202;28;20178;-55
2024/03/13 03:13:38;;;;;;;8.02;6.13;;;;;;;;;;5075732;28;20183;-55
2024/03/13 03:16:04;;;;;;;8.43;6.38;;;;;;;;;;5075741;28;20257;-55
2024/03/13 03:18:30;;;;;;;6.97;5.90;;;;;;;;;;5078536;28;20206;-55
2024/03/13 03:20:58;;;;;;;7.82;6.13;;;;;;;;;;5078331;28;20277;-55
2024/03/13 03:23:24;;;;;;;7.72;5.88;;;;;;;;;;5074249;28;20189;-55
2024/03/13 03:25:50;;;;;;;7.43;5.65;;;;;;;;;;5071543;28;20175;-55
2024/03/13 03:28:16;;;;;;;7.35;5.80;;;;;;;;;;5076483;28;20270;-55
2024/03/13 03:30:42;;;;;;;7.65;5.90;;;;;;;;;;5075988;28;20186;-55
2024/03/13 03:33:09;;;;;;;8.75;5.97;;;;;;;;;;5075070;28;20197;-55
2024/03/13 03:35:37;;;;;;;7.13;5.38;;;;;;;;;;5080772;28;20191;-55
2024/03/13 03:38:05;;;;;;;8.18;6.10;;;;;;;;;;5073199;28;20681;-55
2024/03/13 03:40:31;;;;;;;6.03;4.75;;;;;;;;;;5069504;28;20596;-55
2024/03/13 03:42:58;;;;;;;6.82;5.43;;;;;;;;;;5069436;28;20196;-55
2024/03/13 03:45:25;;;;;;;6.90;5.32;;;;;;;;;;5070349;28;20270;-55
2024/03/13 03:47:51;;;;;;;7.15;5.38;;;;;;;;;;5072417;28;20175;-55
2024/03/13 03:50:17;;;;;;;5.95;5.35;;;;;;;;;;5070996;28;20298;-55
2024/03/13 03:52:43;;;;;;;6.38;5.13;;;;;;;;;;5079148;28;20186;-55
2024/03/13 03:55:09;;;;;;;7.60;5.78;;;;;;;;;;5079941;28;20186;-55
2024/03/13 03:57:35;;;;;;;6.10;5.38;;;;;;;;;;5088377;28;20193;-55
2024/03/13 04:00:01;;;;;;;6.20;5.00;;;;;;;;;;5076242;28;20206;-55
2024/03/13 04:02:27;;;;;;;7.35;5.30;;;;;;;;;;5076774;28;21039;-55
2024/03/13 04:04:53;;;;;;;6.10;4.80;;;;;;;;;;5084947;28;20213;-55
2024/03/13 04:07:19;;;;;;;6.88;5.50;;;;;;;;;;5082180;28;20793;-55
2024/03/13 04:09:45;;;;;;;8.68;5.50;;;;;;;;;;5073848;28;20724;-55
2024/03/13 04:12:11;;;;;;;6.75;5.13;;;;;;;;;;5073221;28;20201;-55
2024/03/13 04:14:37;;;;;;;6.63;5.25;;;;;;;;;;5080961;28;20183;-55
2024/03/13 04:17:03;;;;;;;5.95;4.82;;;;;;;;;;5077661;28;20194;-55
2024/03/13 04:19:29;;;;;;;5.68;4.68;;;;;;;;;;5064762;28;20251;-55
2024/03/13 04:21:58;;;;;;;6.25;4.75;;;;;;;;;;5074396;28;20180;-51
2024/03/13 04:24:24;;;;;;;6.78;4.72;;;;;;;;;;5067545;28;20452;-50
2024/03/13 04:26:50;;;;;;;6.28;4.30;;;;;;;;;;5096991;28;20473;-51
2024/03/13 04:29:16;;;;;;;7.15;4.95;;;;;;;;;;5078274;28;20247;-50
2024/03/13 04:31:42;;;;;;;12.30;4.80;;;;;;;;;;5070105;28;20217;-50
2024/03/13 04:34:08;;;;;;;6.57;4.03;;;;;;;;;;5078230;28;20225;-50
2024/03/13 04:36:40;;;;;;;6.13;4.50;;;;;;;;;;5074971;28;20186;-50
2024/03/13 04:39:06;;;;;;;7.00;4.68;;;;;;;;;;5076498;28;20175;-51
2024/03/13 04:41:33;;;;;;;7.40;4.72;;;;;;;;;;5076721;28;20270;-46
2024/03/13 04:44:00;;;;;;;9.75;4.50;;;;;;;;;;5072370;28;20176;-50
2024/03/13 04:46:26;;;;;;;6.68;4.35;;;;;;;;;;5073061;28;20493;-45
2024/03/13 04:48:52;;;;;;;8.65;4.55;;;;;;;;;;5077982;28;20559;-45
2024/03/13 04:51:18;;;;;;;12.00;4.63;;;;;;;;;;5066070;28;20187;-45
2024/03/13 04:53:44;;;;;;;11.70;4.80;;;;;;;;;;5078393;28;20189;-45
2024/03/13 04:56:13;;;;;;;7.95;4.90;;;;;;;;;;5078957;28;20189;-45
2024/03/13 04:58:39;;;;;;;7.28;4.60;;;;;;;;;;5089722;28;20475;-46
2024/03/13 05:01:05;;;;;;;7.90;4.60;;;;;;;;;;5070485;28;20203;-45
2024/03/13 05:03:31;;;;;;;18.75;5.53;;;;;;;;;;5076003;28;20434;-51
2024/03/13 05:05:57;;;;;;;26.80;6.80;;;;;;;;;;5081273;28;20174;-43
2024/03/13 05:08:23;;;;;;;28.90;6.53;;;;;;;;;;5080906;28;20186;-44
2024/03/13 05:10:49;;;;;;;18.73;6.53;;;;;;;;;;5080283;28;20236;-44
2024/03/13 05:13:15;;;;;;;14.43;5.90;;;;;;;;;;5073279;28;20188;-50
2024/03/13 05:15:41;;;;;;;17.67;5.75;;;;;;;;;;5080052;28;20179;-47
2024/03/13 05:18:09;;;;;;;20.48;6.32;;;;;;;;;;5078204;28;20220;-48
2024/03/13 05:20:35;;;;;;;17.10;5.47;;;;;;;;;;5071359;28;20619;-53
2024/03/13 05:23:06;;;;;;;26.42;6.43;;;;;;;;;;5070321;28;20577;-50
2024/03/13 05:25:32;;;;;;;19.80;5.65;;;;;;;;;;5070231;28;21915;-55
2024/03/13 05:27:58;;;;;;;14.90;5.93;;;;;;;;;;5076579;28;20277;-50
2024/03/13 05:30:24;;;;;;;14.95;5.68;;;;;;;;;;5074389;28;20185;-50
2024/03/13 05:32:50;;;;;;;18.38;5.18;;;;;;;;;;5073386;28;20450;-50
2024/03/13 05:35:16;;;;;;;18.10;5.60;;;;;;;;;;5072454;28;20178;-50
2024/03/13 05:37:42;;;;;;;16.75;5.28;;;;;;;;;;5073041;28;20280;-50
2024/03/13 05:40:19;;;;;;;10.68;5.28;;;;;;;;;;5073694;28;20202;-50
2024/03/13 05:42:45;;;;;;;14.30;5.43;;;;;;;;;;5073448;28;20198;-50
2024/03/13 05:45:13;;;;;;;14.35;5.50;;;;;;;;;;5077032;28;20189;-50
2024/03/13 05:47:42;;;;;;;12.02;5.05;;;;;;;;;;5067650;28;20256;-50
2024/03/13 05:50:09;;;;;;;9.10;5.38;;;;;;;;;;5073069;28;20186;-51
2024/03/13 05:52:35;;;;;;;10.05;4.88;;;;;;;;;;5076564;28;20220;-50
2024/03/13 05:55:01;;;;;;;13.20;5.95;;;;;;;;;;5079213;28;20314;-50
2024/03/13 05:57:27;;;;;;;9.82;5.00;;;;;;;;;;5084788;28;20190;-50
2024/03/13 05:59:53;;;;;;;11.18;4.90;;;;;;;;;;5068183;28;20210;-50
2024/03/13 06:02:19;;;;;;;11.45;4.05;;;;;;;;;;5076046;28;20184;-50
2024/03/13 06:04:45;;;;;;;16.65;4.97;;;;;;;;;;5076562;28;20182;-51
2024/03/13 06:07:11;;;;;;;15.30;5.18;;;;;;;;;;5064867;28;20319;-50
2024/03/13 06:09:37;;;;;;;9.38;4.53;;;;;;;;;;5068043;28;20186;-50
2024/03/13 06:12:04;;;;;;;9.15;4.88;;;;;;;;;;5070014;28;20193;-51
2024/03/13 06:14:30;;;;;;;7.70;4.43;;;;;;;;;;5076610;28;20190;-51
2024/03/13 06:16:56;;;;;;;12.02;4.53;;;;;;;;;;5066131;28;20449;-51
2024/03/13 06:19:22;;;;;;;9.55;4.55;;;;;;;;;;5062699;28;20244;-51
2024/03/13 06:21:49;;;;;;;10.65;5.05;;;;;;;;;;5064408;28;20210;-51
2024/03/13 06:24:20;;;;;;;10.15;4.53;;;;;;;;;;5061098;28;20413;-50
2024/03/13 06:26:47;;;;;;;6.10;4.07;;;;;;;;;;5078077;28;20188;-50
2024/03/13 06:32:00;;;;;;;7.07;4.18;;;;;;;;;;5078261;28;20193;-50
2024/03/13 06:34:26;;;;;;;8.63;4.28;;;;;;;;;;5079401;28;20181;-51
2024/03/13 06:36:52;;;;;;;10.82;4.28;;;;;;;;;;5078008;28;20193;-50
2024/03/13 06:39:21;;;;;;;8.90;4.18;;;;;;;;;;5078578;28;20468;-51
2024/03/13 06:41:47;;;;;;;9.13;4.40;;;;;;;;;;5082326;28;20201;-51
2024/03/13 06:44:13;;;;;;;7.97;4.40;;;;;;;;;;5081899;28;20175;-51
2024/03/13 06:46:39;;;;;;;7.13;3.88;;;;;;;;;;5087771;28;20238;-51
2024/03/13 06:49:05;;;;;;;8.93;4.45;;;;;;;;;;5076361;28;20182;-50
2024/03/13 06:51:31;;;;;;;7.82;3.53;;;;;;;;;;5081376;28;20189;-51
2024/03/13 06:53:57;;;;;;;12.80;3.85;;;;;;;;;;5070720;28;20178;-51
2024/03/13 06:56:23;;;;;;;4.88;3.28;;;;;;;;;;5076927;28;20561;-51
2024/03/13 06:58:50;;;;;;;5.75;3.25;;;;;;;;;;5078544;28;20206;-51
2024/03/13 07:01:16;;;;;;;8.65;3.90;;;;;;;;;;5075004;28;20233;-51
2024/03/13 07:03:42;;;;;;;8.02;3.53;;;;;;;;;;5082194;28;20179;-51
2024/03/13 07:06:08;;;;;;;5.68;3.78;;;;;;;;;;5074611;28;20206;-51
2024/03/13 07:08:35;;;;;;;9.80;3.97;;;;;;;;;;5069998;28;20508;-51
2024/03/13 07:11:04;;;;;;;7.72;3.85;;;;;;;;;;5085461;28;20223;-51
2024/03/13 07:13:31;;;;;;;6.72;4.10;;;;;;;;;;5079926;28;20549;-51
2024/03/13 07:15:57;;;;;;;7.00;3.70;;;;;;;;;;5075405;28;20261;-51
2024/03/13 07:18:23;;;;;;;8.55;3.70;;;;;;;;;;5075478;28;20668;-50
2024/03/13 07:20:49;;;;;;;6.30;3.50;;;;;;;;;;5077571;28;20255;-50
2024/03/13 07:23:16;;;;;;;8.77;3.47;;;;;;;;;;5073046;28;20170;-51
2024/03/13 07:25:42;;;;;;;5.93;3.45;;;;;;;;;;5077732;28;20541;-51
2024/03/13 07:28:08;;;;;;;6.35;3.85;;;;;;;;;;5078106;28;20194;-50
2024/03/13 07:30:34;;;;;;;5.22;3.50;;;;;;;;;;5078074;28;20183;-51
2024/03/13 07:33:00;;;;;;;7.20;3.88;;;;;;;;;;5081105;28;20182;-51
2024/03/13 07:35:26;;;;;;;9.35;4.38;;;;;;;;;;5074436;28;20255;-51
2024/03/13 07:37:52;;;;;;;5.30;3.67;;;;;;;;;;5078707;28;20240;-51
2024/03/13 07:40:20;;;;;;;5.60;3.88;;;;;;;;;;5081372;28;20288;-51
2024/03/13 07:42:46;;;;;;;6.47;3.60;;;;;;;;;;5072740;28;20177;-51
2024/03/13 07:45:16;;;;;;;5.68;3.45;;;;;;;;;;5078041;28;20205;-51
2024/03/13 07:47:42;;;;;;;3.90;3.15;;;;;;;;;;5080922;28;20202;-51
2024/03/13 07:50:09;;;;;;;7.70;4.03;;;;;;;;;;5082820;28;20190;-51
2024/03/13 07:52:35;;;;;;;5.85;3.42;;;;;;;;;;5073106;28;20178;-51
2024/03/13 07:55:01;;;;;;;5.55;3.47;;;;;;;;;;5075350;28;20554;-50
2024/03/13 07:57:27;;;;;;;5.65;3.55;;;;;;;;;;5091344;28;20189;-51
2024/03/13 07:59:53;;;;;;;6.00;3.60;;;;;;;;;;5078370;28;20210;-51
2024/03/13 08:02:19;;;;;;;6.00;3.50;;;;;;;;;;5077216;28;20178;-50
2024/03/13 08:04:45;;;;;;;5.47;3.58;;;;;;;;;;5076604;28;20186;-50
2024/03/13 08:07:11;;;;;;;4.47;3.30;;;;;;;;;;5074969;28;20438;-51
2024/03/13 08:09:37;;;;;;;5.97;3.83;;;;;;;;;;5075701;28;20216;-51
2024/03/13 08:12:03;;;;;;;4.63;3.38;;;;;;;;;;5075839;28;20182;-51
2024/03/13 08:14:29;;;;;;;6.25;4.07;;;;;;;;;;5074867;28;20179;-51
2024/03/13 08:16:55;;;;;;;3.65;2.95;;;;;;;;;;5074948;28;20193;-51
2024/03/13 08:19:24;;;;;;;4.85;3.30;;;;;;;;;;5076168;28;20475;-50
2024/03/13 08:21:50;;;;;;;6.07;3.53;;;;;;;;;;5067535;28;20262;-50
2024/03/13 08:24:18;;;;;;;7.38;4.60;;;;;;;;;;5073645;28;20316;-50
2024/03/13 08:26:44;;;;;;;4.55;3.33;;;;;;;;;;5078251;28;20188;-51
2024/03/13 08:29:15;;;;;;;4.57;3.20;;;;;;;;;;5083160;28;20450;-50
2024/03/13 08:31:42;;;;;;;4.97;3.15;;;;;;;;;;5074416;28;20178;-51
2024/03/13 08:34:09;;;;;;;4.55;3.28;;;;;;;;;;5078200;28;20246;-51
2024/03/13 08:36:35;;;;;;;5.10;3.55;;;;;;;;;;5074094;28;20171;-51
2024/03/13 08:39:01;;;;;;;4.65;3.55;;;;;;;;;;5074321;28;20186;-51
2024/03/13 08:41:31;;;;;;;8.23;3.63;;;;;;;;;;5077452;28;20206;-51
2024/03/13 08:43:56;;;;;;;4.32;3.40;;;;;;;;;;5074923;28;20178;-51
2024/03/13 08:46:22;;;;;;;3.30;2.75;;;;;;;;;;5080135;28;20528;-51
2024/03/13 08:48:50;;;;;;;4.65;3.45;;;;;;;;;;5074700;28;20181;-50
2024/03/13 08:51:17;;;;;;;5.95;3.40;;;;;;;;;;5075797;28;20201;-51
2024/03/13 08:53:45;;;;;;;4.32;2.85;;;;;;;;;;5072822;28;20329;-50
2024/03/13 08:56:10;;;;;;;4.57;3.22;;;;;;;;;;5089048;28;20181;-51
2024/03/13 08:58:36;;;;;;;4.47;3.30;;;;;;;;;;5081045;28;20628;-51
2024/03/13 09:01:02;;;;;;;4.50;3.38;;;;;;;;;;5078852;28;20206;-50
2024/03/13 09:03:28;;;;;;;4.32;2.92;;;;;;;;;;5073408;28;20189;-50
2024/03/13 09:05:56;;;;;;;5.47;3.00;;;;;;;;;;5074339;28;20224;-51
2024/03/13 09:08:24;;;;;;;4.85;3.30;;;;;;;;;;5078226;28;20261;-51
2024/03/13 09:10:50;;;;;;;3.83;2.80;;;;;;;;;;5074567;28;20261;-51
2024/03/13 09:13:16;;;;;;;5.03;3.22;;;;;;;;;;5068748;28;20625;-50
2024/03/13 09:15:42;;;;;;;4.18;3.03;;;;;;;;;;5074680;28;20189;-50
2024/03/13 09:18:08;;;;;;;4.70;2.70;;;;;;;;;;5076313;28;20186;-43
2024/03/13 09:20:35;;;;;;;6.05;2.70;;;;;;;;;;5075461;28;20213;-43
2024/03/13 09:23:01;;;;;;;5.07;3.55;;;;;;;;;;5077975;28;20177;-44
2024/03/13 09:25:27;;;;;;;7.70;3.03;;;;;;;;;;5082756;28;20205;-43
2024/03/13 09:27:54;;;;;;;5.47;2.65;;;;;;;;;;5089634;28;20210;-43
2024/03/13 09:30:20;;;;;;;6.25;2.92;;;;;;;;;;5074367;28;20232;-43
2024/03/13 09:32:46;;;;;;;3.97;2.47;;;;;;;;;;5072742;28;20269;-44
2024/03/13 09:35:13;;;;;;;3.55;2.47;;;;;;;;;;5086678;28;20185;-43
2024/03/13 09:37:42;;;;;;;5.70;2.75;;;;;;;;;;5091123;28;20587;-43
2024/03/13 09:40:16;;;;;;;5.05;2.42;;;;;;;;;;5083337;28;20544;-43
2024/03/13 09:42:42;;;;;;;7.50;3.40;;;;;;;;;;5074412;28;20212;-43
2024/03/13 09:45:12;;;;;;;4.03;2.60;;;;;;;;;;5074406;28;20286;-44
2024/03/13 09:47:38;;;;;;;3.97;1.98;;;;;;;;;;5073677;28;20549;-43
2024/03/13 09:50:06;;;;;;;3.65;2.85;;;;;;;;;;5074188;28;20174;-43
2024/03/13 09:52:32;;;;;;;6.85;2.70;;;;;;;;;;5073317;28;20186;-43
2024/03/13 09:54:59;;;;;;;3.40;2.35;;;;;;;;;;5078053;28;20618;-43
2024/03/13 09:57:26;;;;;;;5.03;2.80;;;;;;;;;;5081852;28;20182;-43
2024/03/13 09:59:56;;;;;;;5.75;2.30;;;;;;;;;;5064962;28;20206;-44
2024/03/13 10:02:23;;;;;;;5.07;2.70;;;;;;;;;;5066447;28;20186;-44
2024/03/13 10:04:49;;;;;;;4.25;2.25;;;;;;;;;;5064263;28;20550;-43
2024/03/13 10:07:19;;;;;;;2.53;2.10;;;;;;;;;;5071880;28;20179;-43
2024/03/13 10:09:48;;;;;;;4.38;2.13;;;;;;;;;;5073553;28;20186;-43
2024/03/13 10:12:22;;;;;;;3.53;2.10;;;;;;;;;;5073041;28;20276;-43
2024/03/13 10:14:51;;;;;;;2.78;2.45;;;;;;;;;;5066668;28;20190;-44
2024/03/13 10:17:19;;;;;;;3.20;2.17;;;;;;;;;;5067175;28;20465;-43
2024/03/13 10:19:51;;;;;;;3.25;2.10;;;;;;;;;;5073889;28;20198;-44
2024/03/13 10:22:18;;;;;;;3.40;2.40;;;;;;;;;;5070670;28;20565;-43
2024/03/13 10:24:46;;;;;;;2.90;2.50;;;;;;;;;;5068567;28;20178;-43
2024/03/13 10:27:14;;;;;;;2.95;2.00;;;;;;;;;;5069608;28;20174;-43
2024/03/13 10:29:40;;;;;;;3.08;1.95;;;;;;;;;;5072214;28;20596;-43
2024/03/13 10:32:06;;;;;;;4.07;2.40;;;;;;;;;;5068969;28;20454;-43
2024/03/13 10:34:32;;;;;;;3.50;2.20;;;;;;;;;;5070936;28;20229;-43
2024/03/13 10:36:58;;;;;;;4.38;2.20;;;;;;;;;;5070931;28;20456;-44
2024/03/13 10:39:27;;;;;;;2.35;2.15;;;;;;;;;;5070149;28;20202;-43
2024/03/13 10:41:53;;;;;;;2.42;2.00;;;;;;;;;;5062783;28;20202;-43
2024/03/13 10:44:21;;;;;;;2.05;1.80;;;;;;;;;;5079344;28;20296;-44
2024/03/13 10:46:49;;;;;;;2.65;1.80;;;;;;;;;;5078923;28;20178;-43
2024/03/13 10:49:15;;;;;;;2.22;2.00;;;;;;;;;;5075344;28;20892;-44
2024/03/13 10:51:41;;;;;;;2.47;1.80;;;;;;;;;;5070961;28;20193;-43
2024/03/13 10:54:12;;;;;;;2.30;1.70;;;;;;;;;;5072970;28;20289;-43
2024/03/13 10:56:38;;;;;;;4.18;2.22;;;;;;;;;;5083771;28;20557;-43
2024/03/13 10:59:04;;;;;;;3.13;1.92;;;;;;;;;;5080900;28;20208;-43
2024/03/13 11:01:30;;;;;;;2.92;1.90;;;;;;;;;;5070791;28;20209;-44
2024/03/13 11:04:02;;;;;;;3.20;1.80;;;;;;;;;;5081064;28;20170;-43
2024/03/13 11:06:28;;;;;;;4.90;2.22;;;;;;;;;;5068832;28;20557;-44
2024/03/13 11:08:56;;;;;;;2.67;2.00;;;;;;;;;;5079219;28;20190;-43
2024/03/13 11:11:22;;;;;;;2.22;2.03;;;;;;;;;;5078184;28;20229;-43
2024/03/13 11:13:50;;;;;;;2.72;2.05;;;;;;;;;;5075455;28;20550;-43
2024/03/13 11:16:18;;;;;;;2.13;1.90;;;;;;;;;;5082903;28;20181;-43
2024/03/13 11:18:46;;;;;;;3.17;1.70;;;;;;;;;;5075679;28;20193;-43
2024/03/13 11:21:17;;;;;;;2.63;1.92;;;;;;;;;;5080686;28;21878;-43
2024/03/13 11:23:48;;;;;;;5.30;2.20;;;;;;;;;;5078028;28;20197;-43
2024/03/13 11:26:18;;;;;;;2.50;1.90;;;;;;;;;;5087217;28;20196;-44
2024/03/13 11:28:45;;;;;;;2.00;1.70;;;;;;;;;;5087069;28;20627;-43
2024/03/13 11:31:13;;;;;;;2.40;1.85;;;;;;;;;;5075004;28;20187;-43
2024/03/13 11:33:40;;;;;;;3.08;1.92;;;;;;;;;;5080625;28;20233;-43
2024/03/13 11:36:09;;;;;;;5.50;2.17;;;;;;;;;;5075212;28;20307;-47
2024/03/13 11:38:36;;;;;;;2.88;1.85;;;;;;;;;;5080872;28;20239;-49
2024/03/13 11:41:03;;;;;;;8.23;2.53;;;;;;;;;;5077242;28;20213;-48
2024/03/13 11:43:29;;;;;;;6.53;2.58;;;;;;;;;;5083544;28;20174;-48
2024/03/13 11:45:55;;;;;;;14.02;2.53;;;;;;;;;;5075834;28;20193;-42
2024/03/13 11:48:21;;;;;;;7.88;1.92;;;;;;;;;;5076020;28;20585;-48
2024/03/13 11:51:10;;;;;;;5.07;2.00;;;;;;;;;;5075014;28;20236;-41
2024/03/13 11:53:38;;;;;;;14.23;3.28;;;;;;;;;;5075027;28;20190;-47
2024/03/13 11:56:13;;;;;;;2.78;1.98;;;;;;;;;;5088748;28;20454;-49
2024/03/13 11:58:40;;;;;;;7.18;2.08;;;;;;;;;;5083119;28;20228;-47
2024/03/13 12:01:12;;;;;;;6.18;2.65;;;;;;;;;;5074325;28;20225;-45
2024/03/13 12:03:44;;;;;;;8.20;2.38;;;;;;;;;;5077622;28;20255;-50
2024/03/13 12:06:36;;;;;;;6.45;2.08;;;;;;;;;;5077816;28;20437;-50
2024/03/13 12:09:03;;;;;;;7.63;2.35;;;;;;;;;;5071617;28;20186;-46
2024/03/13 12:11:31;;;;;;;6.07;1.90;;;;;;;;;;5081163;28;20186;-47
2024/03/13 12:13:59;;;;;;;2.85;2.00;;;;;;;;;;5078577;28;20194;-48
2024/03/13 12:16:25;;;;;;;3.78;2.15;;;;;;;;;;5080070;28;20598;-43
2024/03/13 12:18:52;;;;;;;3.88;2.15;;;;;;;;;;5078811;28;20186;-45
2024/03/13 12:21:18;;;;;;;4.68;1.90;;;;;;;;;;5075267;28;20201;-51
2024/03/13 12:23:45;;;;;;;8.85;3.03;;;;;;;;;;5074664;28;20191;-50
2024/03/13 12:26:11;;;;;;;5.13;2.03;;;;;;;;;;5084774;28;20626;-48
2024/03/13 12:28:37;;;;;;;4.00;2.00;;;;;;;;;;5085724;28;20269;-39
2024/03/13 12:31:04;;;;;;;4.85;1.67;;;;;;;;;;5078164;28;20182;-48
2024/03/13 12:33:30;;;;;;;3.38;1.67;;;;;;;;;;5077229;28;20233;-45
2024/03/13 12:35:59;;;;;;;10.05;2.60;;;;;;;;;;5077251;28;20542;-50
2024/03/13 12:38:35;;;;;;;8.23;1.83;;;;;;;;;;5073950;28;20244;-48
2024/03/13 12:41:01;;;;;;;7.35;1.92;;;;;;;;;;5071643;28;20202;-48
2024/03/13 12:43:27;;;;;;;4.88;2.20;;;;;;;;;;5072773;28;20209;-54
2024/03/13 12:45:54;;;;;;;3.80;1.90;;;;;;;;;;5078018;28;20216;-49
2024/03/13 12:48:20;;;;;;;3.13;1.80;;;;;;;;;;5084703;28;20188;-45
2024/03/13 12:50:46;;;;;;;3.13;2.10;;;;;;;;;;5086465;28;20198;-47
2024/03/13 12:53:12;;;;;;;9.68;2.45;;;;;;;;;;5080417;28;20205;-51
2024/03/13 12:55:38;;;;;;;16.45;4.03;;;;;;;;;;5078966;28;20461;-56
2024/03/13 12:58:08;;;;;;;15.40;4.40;;;;;;;;;;5081121;28;20203;-47
2024/03/13 13:00:36;;;;;;;11.65;5.18;;;;;;;;;;5066758;28;20211;-50
2024/03/13 13:03:05;;;;;;;16.75;6.75;;;;;;;;;;5068093;28;20418;-50
2024/03/13 13:05:33;;;;;;;13.07;3.70;;;;;;;;;;5068804;28;20206;-44
2024/03/13 13:07:59;;;;;;;35.33;7.00;;;;;;;;;;5067638;28;20182;-50
2024/03/13 13:10:26;;;;;;;36.40;6.22;;;;;;;;;;5067281;28;21444;-52
2024/03/13 13:12:55;;;;;;;27.73;5.75;;;;;;;;;;5068854;28;20260;-52
2024/03/13 13:15:22;;;;;;;37.78;8.90;;;;;;;;;;5060825;28;20204;-53
